createdAt,value
2023-05-25T00:02:25.936Z,10.45
2023-05-25T00:05:28.595Z,11.68
2023-05-25T00:08:30.693Z,10.82
2023-05-25T00:11:32.629Z,11.55
2023-05-25T00:14:34.361Z,11.38
2023-05-25T00:17:37.330Z,10.77
2023-05-25T00:20:39.645Z,10.90
2023-05-25T00:23:42.544Z,10.55
2023-05-25T00:26:44.260Z,11.63
2023-05-25T00:29:46.478Z,12.95
2023-05-25T00:32:49.437Z,11.25
2023-05-25T00:35:52.698Z,11.75
2023-05-25T00:38:54.792Z,10.85
2023-05-25T00:41:59.569Z,11.23
2023-05-25T00:45:01.566Z,10.63
2023-05-25T00:48:04.865Z,10.27
2023-05-25T00:51:07.545Z,10.48
2023-05-25T00:54:09.245Z,11.27
2023-05-25T00:57:15.094Z,11.38
2023-05-25T01:00:17.974Z,11.38
2023-05-25T01:03:23.298Z,12.05
2023-05-25T01:06:32.135Z,11.77
2023-05-25T01:09:38.497Z,11.43
2023-05-25T01:12:42.398Z,11.95
2023-05-25T01:15:47.130Z,10.95
2023-05-25T01:18:49.200Z,10.93
2023-05-25T01:21:51.024Z,10.50
2023-05-25T01:25:05.229Z,11.23
2023-05-25T01:28:11.545Z,12.65
2023-05-25T01:31:16.136Z,11.70
2023-05-25T01:34:19.499Z,11.10
2023-05-25T01:37:24.245Z,10.70
2023-05-25T01:40:26.937Z,11.20
2023-05-25T01:43:28.756Z,10.80
2023-05-25T01:46:38.799Z,11.55
2023-05-25T01:49:46.946Z,11.60
2023-05-25T01:52:54.955Z,9.95
2023-05-25T01:56:03.409Z,10.02
2023-05-25T01:59:11.226Z,11.07
2023-05-25T02:02:16.195Z,9.68
2023-05-25T02:05:20.660Z,9.95
2023-05-25T02:08:22.455Z,9.77
2023-05-25T02:11:24.701Z,10.30
2023-05-25T02:14:26.814Z,11.20
2023-05-25T02:17:30.404Z,10.60
2023-05-25T02:20:32.832Z,11.40
2023-05-25T02:23:34.690Z,11.77
2023-05-25T02:26:37.325Z,11.18
2023-05-25T02:29:39.443Z,10.02
2023-05-25T02:32:44.365Z,10.10
2023-05-25T02:35:47.483Z,11.63
2023-05-25T02:38:52.545Z,10.45
2023-05-25T02:41:54.737Z,11.40
2023-05-25T02:44:57.359Z,11.00
2023-05-25T02:47:59.539Z,11.10
2023-05-25T02:51:03.756Z,11.73
2023-05-25T02:54:06.062Z,11.82
2023-05-25T02:57:09.256Z,12.00
2023-05-25T03:00:12.553Z,12.20
2023-05-25T03:03:18.938Z,12.15
2023-05-25T03:06:27.273Z,11.45
2023-05-25T03:09:36.745Z,11.63
2023-05-25T03:12:39.542Z,12.27
2023-05-25T03:15:42.838Z,11.05
2023-05-25T03:18:45.805Z,10.98
2023-05-25T03:21:47.937Z,10.80
2023-05-25T03:24:50.314Z,11.48
2023-05-25T03:27:54.606Z,10.77
2023-05-25T03:30:57.999Z,10.35
2023-05-25T03:33:59.894Z,10.18
2023-05-25T03:37:02.253Z,10.48
2023-05-25T03:40:05.149Z,9.38
2023-05-25T03:43:08.710Z,10.93
2023-05-25T03:46:11.910Z,10.93
2023-05-25T03:49:14.351Z,10.75
2023-05-25T03:52:16.958Z,9.88
2023-05-25T03:55:19.812Z,9.85
2023-05-25T03:58:22.166Z,9.85
2023-05-25T04:01:26.608Z,10.18
2023-05-25T04:04:34.805Z,10.50
2023-05-25T04:07:37.370Z,9.68
2023-05-25T04:10:39.413Z,9.93
2023-05-25T04:13:41.700Z,9.77
2023-05-25T04:16:46.238Z,9.80
2023-05-25T04:19:50.057Z,9.77
2023-05-25T04:22:52.174Z,9.85
2023-05-25T04:25:54.695Z,9.20
2023-05-25T04:28:58.235Z,10.00
2023-05-25T04:32:09.711Z,10.52
2023-05-25T04:35:49.354Z,9.30
2023-05-25T04:38:55.002Z,9.80
2023-05-25T04:41:58.535Z,9.95
2023-05-25T04:45:00.860Z,10.32
2023-05-25T04:48:03.650Z,9.38
2023-05-25T04:51:06.725Z,9.80
2023-05-25T04:54:09.700Z,8.70
2023-05-25T04:57:12.021Z,8.90
2023-05-25T05:00:15.372Z,9.63
2023-05-25T05:03:18.620Z,9.40
2023-05-25T05:06:22.104Z,9.63
2023-05-25T05:09:24.663Z,9.68
2023-05-25T05:12:29.228Z,9.75
2023-05-25T05:15:33.603Z,9.85
2023-05-25T05:18:35.886Z,9.90
2023-05-25T05:21:37.736Z,10.60
2023-05-25T05:24:42.543Z,9.63
2023-05-25T05:27:50.095Z,9.15
2023-05-25T05:30:58.697Z,10.63
2023-05-25T05:34:01.145Z,9.68
2023-05-25T05:37:03.169Z,11.05
2023-05-25T05:40:05.714Z,9.77
2023-05-25T05:43:16.248Z,10.55
2023-05-25T05:46:18.341Z,11.18
2023-05-25T05:49:20.448Z,11.75
2023-05-25T05:52:28.739Z,12.60
2023-05-25T05:55:31.024Z,13.48
2023-05-25T05:58:33.243Z,13.27
2023-05-25T06:01:36.769Z,13.68
2023-05-25T06:04:39.179Z,12.70
2023-05-25T06:07:43.061Z,12.48
2023-05-25T06:10:45.294Z,12.40
2023-05-25T06:13:47.224Z,11.63
2023-05-25T06:16:51.272Z,11.10
2023-05-25T06:19:53.567Z,10.65
2023-05-25T06:22:55.470Z,10.95
2023-05-25T06:25:57.153Z,10.75
2023-05-25T06:28:59.351Z,10.98
2023-05-25T06:32:01.929Z,10.45
2023-05-25T06:35:04.802Z,10.45
2023-05-25T06:38:07.589Z,9.98
2023-05-25T06:41:13.223Z,10.52
2023-05-25T06:44:15.332Z,11.43
2023-05-25T06:47:21.859Z,11.55
2023-05-25T06:50:24.153Z,12.77
2023-05-25T06:53:26.281Z,11.93
2023-05-25T06:56:28.104Z,12.00
2023-05-25T06:59:29.926Z,12.88
2023-05-25T07:02:33.166Z,13.05
2023-05-25T07:05:35.111Z,12.25
2023-05-25T07:08:37.423Z,12.00
2023-05-25T07:11:39.378Z,11.98
2023-05-25T07:14:41.429Z,11.82
2023-05-25T07:17:43.481Z,11.40
2023-05-25T07:20:45.849Z,11.77
2023-05-25T07:23:48.159Z,10.65
2023-05-25T07:26:50.541Z,10.95
2023-05-25T07:29:52.759Z,9.55
2023-05-25T07:32:54.766Z,9.32
2023-05-25T07:35:58.889Z,8.93
2023-05-25T07:39:01.561Z,8.27
2023-05-25T07:42:04.073Z,7.78
2023-05-25T07:45:06.987Z,8.13
2023-05-25T07:48:12.153Z,8.73
2023-05-25T07:51:14.016Z,7.05
2023-05-25T07:54:16.263Z,7.30
2023-05-25T07:57:18.723Z,8.40
2023-05-25T08:00:21.268Z,7.38
2023-05-25T08:03:31.814Z,7.43
2023-05-25T08:06:34.491Z,8.13
2023-05-25T08:09:36.950Z,7.38
2023-05-25T08:12:49.055Z,7.55
2023-05-25T08:15:52.458Z,7.05
2023-05-25T08:18:54.404Z,7.10
2023-05-25T08:21:57.701Z,7.88
2023-05-25T08:25:00.295Z,7.45
2023-05-25T08:28:02.343Z,8.25
2023-05-25T08:31:05.246Z,7.70
2023-05-25T08:34:07.428Z,8.57
2023-05-25T08:37:09.505Z,8.88
2023-05-25T08:40:17.072Z,8.50
2023-05-25T08:43:19.106Z,8.13
2023-05-25T08:46:36.992Z,9.02
2023-05-25T08:49:41.224Z,8.80
2023-05-25T08:52:47.558Z,9.27
2023-05-25T08:55:52.016Z,8.15
2023-05-25T08:59:09.529Z,8.65
2023-05-25T09:02:21.375Z,8.23
2023-05-25T09:05:24.304Z,8.73
2023-05-25T09:08:27.385Z,8.43
2023-05-25T09:11:38.572Z,8.10
2023-05-25T09:14:48.077Z,7.88
2023-05-25T09:17:55.852Z,8.00
2023-05-25T09:20:59.390Z,8.40
2023-05-25T09:24:02.071Z,8.70
2023-05-25T09:27:05.751Z,8.80
2023-05-25T09:30:08.874Z,8.63
2023-05-25T09:33:17.640Z,8.82
2023-05-25T09:36:22.166Z,7.70
2023-05-25T09:39:25.979Z,6.45
2023-05-25T09:42:28.045Z,7.40
2023-05-25T09:45:30.825Z,7.00
2023-05-25T09:48:33.036Z,7.07
2023-05-25T09:51:37.285Z,7.57
2023-05-25T09:54:39.644Z,7.03
2023-05-25T09:57:43.299Z,6.70
2023-05-25T10:00:46.709Z,7.60
2023-05-25T10:04:02.791Z,7.95
2023-05-25T10:07:11.428Z,7.30
2023-05-25T10:10:16.849Z,6.72
2023-05-25T10:13:27.663Z,7.28
2023-05-25T10:16:33.517Z,6.80
2023-05-25T10:19:54.029Z,7.88
2023-05-25T10:23:15.138Z,6.03
2023-05-25T10:26:23.962Z,7.97
2023-05-25T10:29:29.635Z,7.25
2023-05-25T10:32:32.897Z,7.07
2023-05-25T10:35:50.810Z,6.60
2023-05-25T10:38:58.255Z,6.70
2023-05-25T10:42:02.230Z,7.95
2023-05-25T10:45:07.126Z,7.45
2023-05-25T10:48:10.839Z,7.20
2023-05-25T10:51:14.337Z,6.72
2023-05-25T10:54:16.186Z,7.20
2023-05-25T10:57:20.463Z,6.90
2023-05-25T11:00:22.697Z,7.07
2023-05-25T11:03:45.182Z,6.22
2023-05-25T11:06:50.625Z,6.65
2023-05-25T11:09:58.716Z,5.82
2023-05-25T11:13:24.985Z,5.28
2023-05-25T11:16:36.187Z,6.35
2023-05-25T11:19:59.390Z,5.47
2023-05-25T11:23:33.503Z,5.75
2023-05-25T11:26:47.191Z,5.07
2023-05-25T11:30:31.779Z,5.30
2023-05-25T11:33:42.198Z,4.63
2023-05-25T11:36:46.180Z,4.50
2023-05-25T11:40:26.619Z,4.53
2023-05-25T11:43:29.997Z,4.97
2023-05-25T11:46:57.308Z,4.63
2023-05-25T11:50:31.226Z,4.60
2023-05-25T11:53:45.326Z,4.50
2023-05-25T11:57:20.332Z,5.53
2023-05-25T12:00:43.905Z,4.65
2023-05-25T12:03:48.165Z,3.40
2023-05-25T12:06:50.096Z,3.60
2023-05-25T12:09:53.056Z,4.05
2023-05-25T12:12:58.626Z,3.67
2023-05-25T12:16:01.756Z,3.47
2023-05-25T12:19:04.485Z,3.33
2023-05-25T12:22:07.160Z,3.20
2023-05-25T12:25:11.568Z,3.70
2023-05-25T12:28:19.176Z,4.15
2023-05-25T12:31:26.131Z,3.80
2023-05-25T12:34:35.211Z,3.70
2023-05-25T12:37:37.625Z,3.50
2023-05-25T12:40:40.944Z,4.03
2023-05-25T12:43:46.734Z,3.88
2023-05-25T12:46:50.355Z,3.50
2023-05-25T12:50:10.156Z,4.05
2023-05-25T12:53:22.728Z,3.67
2023-05-25T12:56:26.614Z,3.80
2023-05-25T12:59:31.732Z,3.17
2023-05-25T13:02:35.382Z,3.55
2023-05-25T13:05:42.056Z,3.55
2023-05-25T13:08:44.417Z,3.60
2023-05-25T13:11:46.570Z,3.15
2023-05-25T13:14:50.936Z,3.45
2023-05-25T13:18:05.633Z,3.53
2023-05-25T13:21:11.461Z,3.60
2023-05-25T13:24:26.093Z,3.95
2023-05-25T13:27:28.950Z,3.55
2023-05-25T13:30:32.331Z,3.97
2023-05-25T13:33:34.825Z,3.50
2023-05-25T13:36:39.999Z,4.10
2023-05-25T13:39:43.968Z,3.05
2023-05-25T13:42:50.239Z,3.28
2023-05-25T13:45:52.650Z,3.70
2023-05-25T13:48:55.093Z,3.70
2023-05-25T13:52:00.688Z,3.08
2023-05-25T13:55:08.190Z,4.18
2023-05-25T13:58:10.518Z,3.67
2023-05-25T14:01:17.546Z,4.07
2023-05-25T14:04:20.070Z,3.45
2023-05-25T14:07:22.458Z,3.30
2023-05-25T14:10:25.195Z,3.28
2023-05-25T14:13:27.182Z,4.13
2023-05-25T14:16:29.291Z,2.90
2023-05-25T14:19:31.346Z,2.97
2023-05-25T14:22:36.446Z,3.22
2023-05-25T14:25:38.527Z,3.30
2023-05-25T14:28:40.713Z,3.92
2023-05-25T14:31:42.915Z,3.92
2023-05-25T14:34:45.765Z,4.13
2023-05-25T14:37:48.311Z,4.18
2023-05-25T14:40:50.574Z,4.25
2023-05-25T14:43:52.608Z,4.13
2023-05-25T14:46:55.333Z,4.65
2023-05-25T14:49:57.496Z,3.72
2023-05-25T14:52:59.613Z,3.90
2023-05-25T14:56:03.707Z,3.80
2023-05-25T14:59:06.546Z,4.10
2023-05-25T15:02:08.901Z,4.03
2023-05-25T15:05:10.818Z,4.57
2023-05-25T15:08:13.000Z,4.03
2023-05-25T15:11:20.933Z,3.75
2023-05-25T15:14:23.195Z,3.90
2023-05-25T15:17:25.306Z,3.92
2023-05-25T15:20:30.597Z,4.80
2023-05-25T15:23:35.498Z,4.47
2023-05-25T15:26:37.576Z,4.32
2023-05-25T15:29:39.721Z,4.38
2023-05-25T15:32:42.178Z,5.03
2023-05-25T15:35:44.517Z,4.00
2023-05-25T15:38:49.038Z,4.00
2023-05-25T15:41:51.747Z,4.00
2023-05-25T15:44:53.836Z,3.80
2023-05-25T15:47:55.992Z,4.82
2023-05-25T15:50:58.261Z,4.22
2023-05-25T15:54:00.165Z,4.32
2023-05-25T15:57:02.728Z,3.55
2023-05-25T16:00:05.618Z,4.00
2023-05-25T16:03:10.431Z,3.65
2023-05-25T16:06:12.842Z,3.92
2023-05-25T16:09:15.208Z,4.30
2023-05-25T16:12:17.372Z,4.60
2023-05-25T16:15:20.878Z,4.38
2023-05-25T16:18:24.267Z,3.70
2023-05-25T16:21:27.100Z,3.88
2023-05-25T16:24:29.247Z,4.15
2023-05-25T16:27:31.785Z,3.88
2023-05-25T16:30:33.955Z,4.10
2023-05-25T16:33:36.377Z,4.38
2023-05-25T16:36:38.470Z,3.72
2023-05-25T16:39:40.714Z,4.40
2023-05-25T16:42:42.900Z,4.63
2023-05-25T16:45:45.018Z,4.05
2023-05-25T16:48:47.512Z,4.07
2023-05-25T16:51:50.660Z,4.15
2023-05-25T16:54:52.615Z,5.13
2023-05-25T16:57:54.876Z,4.57
2023-05-25T17:00:56.919Z,4.13
2023-05-25T17:03:59.346Z,3.97
2023-05-25T17:07:01.411Z,4.30
2023-05-25T17:10:03.700Z,4.32
2023-05-25T17:13:05.720Z,4.40
2023-05-25T17:16:07.967Z,4.60
2023-05-25T17:19:11.201Z,4.40
2023-05-25T17:22:13.058Z,4.30
2023-05-25T17:25:15.074Z,4.25
2023-05-25T17:28:17.019Z,4.30
2023-05-25T17:31:19.529Z,4.15
2023-05-25T17:34:21.987Z,4.00
2023-05-25T17:37:26.455Z,4.43
2023-05-25T17:40:28.418Z,4.55
2023-05-25T17:43:32.111Z,4.38
2023-05-25T17:46:33.972Z,4.80
2023-05-25T17:49:36.030Z,4.75
2023-05-25T17:52:37.899Z,4.38
2023-05-25T17:55:40.132Z,4.80
2023-05-25T17:58:47.556Z,4.80
2023-05-25T18:01:50.360Z,4.35
2023-05-25T18:04:52.591Z,4.18
2023-05-25T18:07:54.952Z,4.57
2023-05-25T18:10:57.475Z,4.38
2023-05-25T18:14:05.824Z,4.85
2023-05-25T18:17:07.973Z,4.75
2023-05-25T18:20:11.496Z,5.05
2023-05-25T18:23:14.592Z,4.75
2023-05-25T18:26:16.597Z,5.45
2023-05-25T18:29:18.913Z,4.70
2023-05-25T18:32:21.072Z,4.78
2023-05-25T18:35:25.948Z,4.75
2023-05-25T18:38:27.831Z,4.72
2023-05-25T18:41:29.892Z,4.72
2023-05-25T18:44:35.539Z,4.75
2023-05-25T18:47:37.553Z,4.15
2023-05-25T18:50:41.893Z,4.80
2023-05-25T18:53:44.993Z,4.45
2023-05-25T18:56:47.432Z,5.03
2023-05-25T18:59:52.394Z,4.88
2023-05-25T19:02:54.411Z,4.75
2023-05-25T19:05:56.549Z,4.72
2023-05-25T19:08:58.409Z,4.97
2023-05-25T19:12:01.152Z,4.68
2023-05-25T19:15:04.560Z,5.00
2023-05-25T19:18:06.517Z,4.90
2023-05-25T19:21:08.581Z,5.88
2023-05-25T19:24:10.711Z,4.78
2023-05-25T19:27:13.009Z,5.95
2023-05-25T19:30:15.197Z,5.05
2023-05-25T19:33:22.756Z,4.85
2023-05-25T19:36:24.729Z,4.47
2023-05-25T19:39:26.512Z,5.25
2023-05-25T19:42:28.511Z,5.28
2023-05-25T19:45:30.733Z,5.07
2023-05-25T19:48:33.045Z,4.75
2023-05-25T19:51:34.930Z,4.93
2023-05-25T19:54:36.904Z,5.20
2023-05-25T19:57:38.679Z,5.18
2023-05-25T20:00:40.471Z,5.32
2023-05-25T20:03:44.462Z,6.80
2023-05-25T20:06:46.546Z,5.15
2023-05-25T20:09:48.336Z,4.32
2023-05-25T20:12:50.154Z,4.50
2023-05-25T20:15:52.092Z,5.28
2023-05-25T20:18:53.897Z,5.25
2023-05-25T20:21:55.877Z,4.82
2023-05-25T20:25:01.049Z,4.55
2023-05-25T20:28:03.375Z,4.55
2023-05-25T20:31:06.497Z,5.18
2023-05-25T20:34:08.420Z,4.55
2023-05-25T20:37:10.218Z,5.35
2023-05-25T20:40:12.180Z,5.70
2023-05-25T20:43:14.057Z,5.13
2023-05-25T20:46:15.928Z,4.57
2023-05-25T20:49:18.037Z,4.80
2023-05-25T20:52:21.237Z,5.20
2023-05-25T20:55:23.881Z,5.10
2023-05-25T20:58:25.707Z,4.43
2023-05-25T21:01:27.686Z,4.25
2023-05-25T21:04:31.668Z,4.45
2023-05-25T21:07:33.680Z,5.30
2023-05-25T21:10:35.789Z,5.80
2023-05-25T21:13:37.727Z,5.22
2023-05-25T21:16:39.928Z,4.85
2023-05-25T21:19:41.939Z,5.28
2023-05-25T21:22:43.732Z,4.47
2023-05-25T21:25:45.912Z,4.88
2023-05-25T21:28:48.036Z,5.07
2023-05-25T21:31:52.190Z,4.50
2023-05-25T21:34:54.926Z,3.92
2023-05-25T21:37:56.937Z,4.13
2023-05-25T21:41:01.386Z,4.65
2023-05-25T21:44:03.177Z,4.88
2023-05-25T21:47:05.432Z,4.97
2023-05-25T21:50:13.036Z,4.78
2023-05-25T21:53:14.831Z,4.63
2023-05-25T21:56:16.785Z,5.25
2023-05-25T21:59:18.616Z,4.20
2023-05-25T22:02:21.291Z,4.50
2023-05-25T22:05:23.525Z,4.85
2023-05-25T22:08:25.395Z,4.97
2023-05-25T22:11:27.691Z,4.25
2023-05-25T22:14:29.439Z,4.63
2023-05-25T22:17:31.106Z,4.72
2023-05-25T22:20:33.094Z,4.70
2023-05-25T22:23:35.348Z,4.63
2023-05-25T22:26:37.072Z,4.68
2023-05-25T22:29:45.005Z,3.50
2023-05-25T22:32:47.067Z,4.60
2023-05-25T22:35:51.221Z,4.47
2023-05-25T22:38:53.356Z,3.92
2023-05-25T22:41:54.957Z,4.30
2023-05-25T22:44:56.943Z,4.70
2023-05-25T22:47:58.937Z,4.40
2023-05-25T22:51:00.693Z,3.95
2023-05-25T22:54:02.799Z,4.43
2023-05-25T22:57:04.862Z,4.38
2023-05-25T23:00:07.661Z,4.15
2023-05-25T23:03:09.571Z,4.07
2023-05-25T23:06:14.581Z,5.20
2023-05-25T23:09:16.453Z,4.28
2023-05-25T23:12:18.824Z,4.18
2023-05-25T23:15:22.658Z,4.10
2023-05-25T23:18:24.589Z,4.47
2023-05-25T23:21:26.563Z,4.85
2023-05-25T23:24:30.615Z,4.03
2023-05-25T23:27:33.428Z,4.35
2023-05-25T23:30:35.765Z,5.15
2023-05-25T23:33:37.626Z,4.00
2023-05-25T23:36:40.744Z,4.13
2023-05-25T23:39:42.532Z,4.03
2023-05-25T23:42:45.167Z,4.20
2023-05-25T23:45:47.639Z,4.18
2023-05-25T23:48:49.824Z,4.60
2023-05-25T23:51:51.975Z,4.32
2023-05-25T23:54:54.152Z,4.03
2023-05-25T23:57:56.157Z,3.50
